Aviation Digital Data Service (ADDS)

Output produced by METARs form (1748 UTC 28 March 2017)
found at http://aviationweather.gov/adds/metars/
 
KILM 281730Z 2818/2918 20008KT P6SM VCTS SCT040 BKN100CB 
     FM290100 23004KT P6SM SCT050 
     FM290800 30005KT P6SM FEW050 
     FM291700 03007KT P6SM SCT040